Decoded Metar for MMSD (SAN JOSE DEL CABO in MEXICO) (IATA:SJD) | Meteo·Mobile Aviation Weather
aviador You're here:

MMSD Decoded Metar

SAN JOSE DEL CABO in MEXICO
Report Time2018-11-12 21:40:00
UTC Time2018-11-12 22:35:38
Flight Rules vfr VFR
Wind360° at 15 kt
W.Decomp.*RWY 34: 14.7 kt HW 2.9 kt RCW
Visibility9999 m
Phenomena:N/A
Clouds:N/A
Expected CloudBase > 5,200 ft AGL from Temp-Dew spread
CeilingNone
Temp28°C (ISA +14)
Dew Point15°C (45% RH)
Heat Index28.0°C
AAT24.2°C
QNH1013 hPa
Density Alt2,165 ft
Elevation358 ft
Report Wrong Elevation
Raw Report
METAR MMSD 122140Z 36015KT 12SM SKC 28/15 A2992 RMK CU=

Extra information for MMSD:More info

Metar Taf Metar & Taf Last 4 Metars F.Rules Stats Wind Profile Meteogram Temp Stats Airport Information Weather charts Add Link Nearby VenuesMetar ALERT Operation Metar Decoded Social comments